La Puente, California
Current Conditions -  °F | °C
As of 7:53 PM on Friday 24 Oct 2014 (Local Time) from KFUL Reporting Station
Clear Clear  
Wind Chill: 74°   Ceiling: Unl
Heat Index: 74°   Visibility: 10mi
Dew Point: 58°   Wind: 3mph
Humidity: 57%   Direction: 230°SW
Pressure: 29.94"   Gusts: NA
Location:  34.02°N, 117.95°W
Report Text: KFUL 250253Z 23003KT 10SM CLR 23/14 A2994 RMK AO2 SLP137 T02330144 53010 $
Loading
Personal Weather Stations






























Interactive Weather Map
Tropical Storm Tracking
New forecast layout! Learn more

10-Day Weather Forecast

Advertisements
Track Severe Weather on mobile